sensor_id;sensor_type;location;lat;lon;timestamp;P1;durP1;ratioP1;P2;durP2;ratioP2
34200;SDS011;20469;55.638;37.670;2023-02-08T00:00:57;13.73;;;9.23;;
34200;SDS011;20469;55.638;37.670;2023-02-08T00:03:24;14.73;;;8.70;;
34200;SDS011;20469;55.638;37.670;2023-02-08T00:05:54;13.77;;;8.30;;
34200;SDS011;20469;55.638;37.670;2023-02-08T00:08:22;13.27;;;8.83;;
34200;SDS011;20469;55.638;37.670;2023-02-08T00:10:49;12.53;;;8.70;;
34200;SDS011;20469;55.638;37.670;2023-02-08T00:13:16;11.90;;;7.87;;
34200;SDS011;20469;55.638;37.670;2023-02-08T00:15:44;12.07;;;7.97;;
34200;SDS011;20469;55.638;37.670;2023-02-08T00:18:12;11.63;;;8.07;;
34200;SDS011;20469;55.638;37.670;2023-02-08T00:20:40;11.43;;;7.72;;
34200;SDS011;20469;55.638;37.670;2023-02-08T00:23:08;13.87;;;8.90;;
34200;SDS011;20469;55.638;37.670;2023-02-08T00:25:36;13.77;;;8.00;;
34200;SDS011;20469;55.638;37.670;2023-02-08T00:28:04;11.87;;;7.87;;
34200;SDS011;20469;55.638;37.670;2023-02-08T00:30:35;13.07;;;8.10;;
34200;SDS011;20469;55.638;37.670;2023-02-08T00:33:03;10.97;;;7.93;;
34200;SDS011;20469;55.638;37.670;2023-02-08T00:35:30;11.15;;;7.78;;
34200;SDS011;20469;55.638;37.670;2023-02-08T00:37:58;14.00;;;8.13;;
34200;SDS011;20469;55.638;37.670;2023-02-08T00:40:25;11.75;;;7.55;;
34200;SDS011;20469;55.638;37.670;2023-02-08T00:42:52;12.37;;;8.17;;
34200;SDS011;20469;55.638;37.670;2023-02-08T00:45:19;11.77;;;8.33;;
34200;SDS011;20469;55.638;37.670;2023-02-08T00:47:47;12.63;;;8.87;;
34200;SDS011;20469;55.638;37.670;2023-02-08T00:50:14;12.43;;;8.32;;
34200;SDS011;20469;55.638;37.670;2023-02-08T00:52:41;11.68;;;8.02;;
34200;SDS011;20469;55.638;37.670;2023-02-08T00:55:08;11.37;;;8.17;;
34200;SDS011;20469;55.638;37.670;2023-02-08T00:57:35;12.75;;;8.10;;
34200;SDS011;20469;55.638;37.670;2023-02-08T01:00:03;12.37;;;7.73;;
34200;SDS011;20469;55.638;37.670;2023-02-08T01:02:32;13.37;;;8.27;;
34200;SDS011;20469;55.638;37.670;2023-02-08T01:04:59;11.73;;;7.80;;
34200;SDS011;20469;55.638;37.670;2023-02-08T01:07:26;12.60;;;8.13;;
34200;SDS011;20469;55.638;37.670;2023-02-08T01:09:53;14.52;;;8.40;;
34200;SDS011;20469;55.638;37.670;2023-02-08T01:12:20;13.27;;;8.33;;
34200;SDS011;20469;55.638;37.670;2023-02-08T01:14:47;13.83;;;8.30;;
34200;SDS011;20469;55.638;37.670;2023-02-08T01:17:15;12.23;;;8.20;;
34200;SDS011;20469;55.638;37.670;2023-02-08T01:19:42;12.87;;;8.20;;
34200;SDS011;20469;55.638;37.670;2023-02-08T01:22:09;12.80;;;8.53;;
34200;SDS011;20469;55.638;37.670;2023-02-08T01:24:36;12.93;;;8.47;;
34200;SDS011;20469;55.638;37.670;2023-02-08T01:27:03;11.07;;;8.03;;
34200;SDS011;20469;55.638;37.670;2023-02-08T01:29:30;13.45;;;8.68;;
34200;SDS011;20469;55.638;37.670;2023-02-08T01:31:57;14.80;;;8.50;;
34200;SDS011;20469;55.638;37.670;2023-02-08T01:34:24;11.73;;;7.50;;
34200;SDS011;20469;55.638;37.670;2023-02-08T01:36:51;11.63;;;8.23;;
34200;SDS011;20469;55.638;37.670;2023-02-08T01:39:18;12.37;;;8.17;;
34200;SDS011;20469;55.638;37.670;2023-02-08T01:41:45;10.27;;;7.17;;
34200;SDS011;20469;55.638;37.670;2023-02-08T01:46:44;11.60;;;7.60;;
34200;SDS011;20469;55.638;37.670;2023-02-08T01:49:18;12.80;;;7.57;;
34200;SDS011;20469;55.638;37.670;2023-02-08T01:51:53;11.57;;;7.57;;
34200;SDS011;20469;55.638;37.670;2023-02-08T01:54:24;12.63;;;7.80;;
34200;SDS011;20469;55.638;37.670;2023-02-08T01:56:54;11.13;;;7.23;;
34200;SDS011;20469;55.638;37.670;2023-02-08T01:59:26;12.07;;;6.87;;
34200;SDS011;20469;55.638;37.670;2023-02-08T02:01:59;10.07;;;6.87;;
34200;SDS011;20469;55.638;37.670;2023-02-08T02:04:28;11.13;;;7.33;;
34200;SDS011;20469;55.638;37.670;2023-02-08T02:06:56;10.30;;;7.40;;
34200;SDS011;20469;55.638;37.670;2023-02-08T02:10:09;10.93;;;7.43;;
34200;SDS011;20469;55.638;37.670;2023-02-08T02:12:21;12.13;;;7.93;;
34200;SDS011;20469;55.638;37.670;2023-02-08T02:14:49;11.17;;;7.47;;
34200;SDS011;20469;55.638;37.670;2023-02-08T02:17:17;11.43;;;7.43;;
34200;SDS011;20469;55.638;37.670;2023-02-08T02:36:31;11.27;;;7.50;;
34200;SDS011;20469;55.638;37.670;2023-02-08T02:44:22;12.17;;;7.60;;
34200;SDS011;20469;55.638;37.670;2023-02-08T02:46:57;10.97;;;7.03;;
34200;SDS011;20469;55.638;37.670;2023-02-08T02:49:45;11.73;;;7.60;;
34200;SDS011;20469;55.638;37.670;2023-02-08T02:52:21;10.50;;;7.10;;
34200;SDS011;20469;55.638;37.670;2023-02-08T02:54:54;11.83;;;7.53;;
34200;SDS011;20469;55.638;37.670;2023-02-08T02:57:29;12.70;;;7.97;;
34200;SDS011;20469;55.638;37.670;2023-02-08T02:59:58;12.33;;;7.67;;
34200;SDS011;20469;55.638;37.670;2023-02-08T03:02:26;12.02;;;7.97;;
34200;SDS011;20469;55.638;37.670;2023-02-08T03:04:54;12.13;;;7.87;;
34200;SDS011;20469;55.638;37.670;2023-02-08T03:21:34;10.37;;;7.10;;
34200;SDS011;20469;55.638;37.670;2023-02-08T03:27:10;10.57;;;6.53;;
34200;SDS011;20469;55.638;37.670;2023-02-08T03:32:39;10.20;;;6.57;;
34200;SDS011;20469;55.638;37.670;2023-02-08T03:35:20;8.97;;;6.27;;
34200;SDS011;20469;55.638;37.670;2023-02-08T03:40:28;10.50;;;7.10;;
34200;SDS011;20469;55.638;37.670;2023-02-08T03:42:57;10.03;;;6.63;;
34200;SDS011;20469;55.638;37.670;2023-02-08T03:45:31;10.53;;;6.53;;
34200;SDS011;20469;55.638;37.670;2023-02-08T03:48:05;9.43;;;6.10;;
34200;SDS011;20469;55.638;37.670;2023-02-08T03:50:36;9.57;;;6.43;;
34200;SDS011;20469;55.638;37.670;2023-02-08T03:53:06;9.30;;;5.90;;
34200;SDS011;20469;55.638;37.670;2023-02-08T03:55:36;8.70;;;6.00;;
34200;SDS011;20469;55.638;37.670;2023-02-08T03:58:21;10.17;;;7.07;;
34200;SDS011;20469;55.638;37.670;2023-02-08T04:00:57;9.93;;;6.20;;
34200;SDS011;20469;55.638;37.670;2023-02-08T04:03:30;9.27;;;6.30;;
34200;SDS011;20469;55.638;37.670;2023-02-08T04:05:59;9.90;;;6.60;;
34200;SDS011;20469;55.638;37.670;2023-02-08T04:08:26;10.23;;;6.37;;
34200;SDS011;20469;55.638;37.670;2023-02-08T04:10:53;11.60;;;6.83;;
34200;SDS011;20469;55.638;37.670;2023-02-08T04:13:20;12.80;;;7.25;;
34200;SDS011;20469;55.638;37.670;2023-02-08T04:15:47;11.10;;;6.70;;
34200;SDS011;20469;55.638;37.670;2023-02-08T04:18:15;8.93;;;5.90;;
34200;SDS011;20469;55.638;37.670;2023-02-08T04:20:42;10.15;;;7.15;;
34200;SDS011;20469;55.638;37.670;2023-02-08T04:23:09;9.97;;;6.07;;
34200;SDS011;20469;55.638;37.670;2023-02-08T04:25:36;11.07;;;6.93;;
34200;SDS011;20469;55.638;37.670;2023-02-08T04:28:03;10.80;;;6.80;;
34200;SDS011;20469;55.638;37.670;2023-02-08T04:30:31;10.17;;;6.20;;
34200;SDS011;20469;55.638;37.670;2023-02-08T04:32:58;11.53;;;6.83;;
34200;SDS011;20469;55.638;37.670;2023-02-08T04:35:25;11.13;;;6.47;;
34200;SDS011;20469;55.638;37.670;2023-02-08T04:37:52;9.63;;;6.53;;
34200;SDS011;20469;55.638;37.670;2023-02-08T04:40:19;10.20;;;6.78;;
34200;SDS011;20469;55.638;37.670;2023-02-08T04:42:47;10.93;;;6.80;;
34200;SDS011;20469;55.638;37.670;2023-02-08T04:45:14;11.50;;;6.37;;
34200;SDS011;20469;55.638;37.670;2023-02-08T04:47:41;10.40;;;6.10;;
34200;SDS011;20469;55.638;37.670;2023-02-08T04:50:08;8.90;;;5.83;;
34200;SDS011;20469;55.638;37.670;2023-02-08T04:52:35;8.87;;;5.27;;
34200;SDS011;20469;55.638;37.670;2023-02-08T04:55:03;10.77;;;6.30;;
34200;SDS011;20469;55.638;37.670;2023-02-08T04:57:30;7.33;;;4.90;;
34200;SDS011;20469;55.638;37.670;2023-02-08T04:59:57;9.70;;;5.90;;
34200;SDS011;20469;55.638;37.670;2023-02-08T05:02:25;10.13;;;6.17;;
34200;SDS011;20469;55.638;37.670;2023-02-08T05:04:52;12.93;;;7.13;;
34200;SDS011;20469;55.638;37.670;2023-02-08T05:07:20;11.23;;;6.30;;
34200;SDS011;20469;55.638;37.670;2023-02-08T05:09:47;10.77;;;6.80;;
34200;SDS011;20469;55.638;37.670;2023-02-08T05:12:14;9.53;;;5.90;;
34200;SDS011;20469;55.638;37.670;2023-02-08T05:14:41;10.67;;;6.70;;
34200;SDS011;20469;55.638;37.670;2023-02-08T05:17:08;9.23;;;6.17;;
34200;SDS011;20469;55.638;37.670;2023-02-08T05:19:36;11.30;;;6.87;;
34200;SDS011;20469;55.638;37.670;2023-02-08T05:22:03;9.87;;;6.27;;
34200;SDS011;20469;55.638;37.670;2023-02-08T05:24:30;11.00;;;6.83;;
34200;SDS011;20469;55.638;37.670;2023-02-08T05:26:57;11.85;;;6.68;;
34200;SDS011;20469;55.638;37.670;2023-02-08T05:29:24;13.00;;;6.60;;
34200;SDS011;20469;55.638;37.670;2023-02-08T05:31:51;11.03;;;6.90;;
34200;SDS011;20469;55.638;37.670;2023-02-08T05:34:18;13.00;;;7.80;;
34200;SDS011;20469;55.638;37.670;2023-02-08T05:36:45;12.87;;;7.17;;
34200;SDS011;20469;55.638;37.670;2023-02-08T05:39:14;13.77;;;7.10;;
34200;SDS011;20469;55.638;37.670;2023-02-08T05:41:41;13.10;;;7.60;;
34200;SDS011;20469;55.638;37.670;2023-02-08T05:44:08;13.77;;;7.53;;
34200;SDS011;20469;55.638;37.670;2023-02-08T05:46:35;14.55;;;7.15;;
34200;SDS011;20469;55.638;37.670;2023-02-08T05:49:03;14.17;;;7.70;;
34200;SDS011;20469;55.638;37.670;2023-02-08T05:51:31;12.53;;;7.83;;
34200;SDS011;20469;55.638;37.670;2023-02-08T05:53:58;12.03;;;7.17;;
34200;SDS011;20469;55.638;37.670;2023-02-08T05:56:25;13.75;;;7.80;;
34200;SDS011;20469;55.638;37.670;2023-02-08T05:58:53;13.00;;;7.15;;
34200;SDS011;20469;55.638;37.670;2023-02-08T06:01:20;11.23;;;6.77;;
34200;SDS011;20469;55.638;37.670;2023-02-08T06:03:48;13.98;;;7.53;;
34200;SDS011;20469;55.638;37.670;2023-02-08T06:06:15;11.33;;;7.20;;
34200;SDS011;20469;55.638;37.670;2023-02-08T06:08:43;13.70;;;7.57;;
34200;SDS011;20469;55.638;37.670;2023-02-08T06:11:10;12.60;;;7.45;;
34200;SDS011;20469;55.638;37.670;2023-02-08T06:13:37;14.97;;;8.63;;
34200;SDS011;20469;55.638;37.670;2023-02-08T06:16:05;13.38;;;7.88;;
34200;SDS011;20469;55.638;37.670;2023-02-08T06:18:32;12.90;;;7.53;;
34200;SDS011;20469;55.638;37.670;2023-02-08T06:20:59;14.83;;;8.40;;
34200;SDS011;20469;55.638;37.670;2023-02-08T06:23:27;11.70;;;7.70;;
34200;SDS011;20469;55.638;37.670;2023-02-08T06:25:54;14.10;;;8.05;;
34200;SDS011;20469;55.638;37.670;2023-02-08T06:28:21;13.93;;;7.33;;
34200;SDS011;20469;55.638;37.670;2023-02-08T06:30:49;16.23;;;8.77;;
34200;SDS011;20469;55.638;37.670;2023-02-08T06:33:17;12.83;;;8.03;;
34200;SDS011;20469;55.638;37.670;2023-02-08T06:35:49;14.73;;;8.40;;
34200;SDS011;20469;55.638;37.670;2023-02-08T06:38:18;13.77;;;8.07;;
34200;SDS011;20469;55.638;37.670;2023-02-08T06:40:45;13.40;;;8.17;;
34200;SDS011;20469;55.638;37.670;2023-02-08T06:43:14;12.03;;;7.10;;
34200;SDS011;20469;55.638;37.670;2023-02-08T06:45:45;15.25;;;8.27;;
34200;SDS011;20469;55.638;37.670;2023-02-08T06:48:12;13.17;;;8.17;;
34200;SDS011;20469;55.638;37.670;2023-02-08T06:50:40;11.95;;;7.72;;
34200;SDS011;20469;55.638;37.670;2023-02-08T06:53:08;13.60;;;8.27;;
34200;SDS011;20469;55.638;37.670;2023-02-08T06:55:35;14.53;;;8.83;;
34200;SDS011;20469;55.638;37.670;2023-02-08T06:58:02;13.23;;;8.57;;
34200;SDS011;20469;55.638;37.670;2023-02-08T07:00:29;13.90;;;8.63;;
34200;SDS011;20469;55.638;37.670;2023-02-08T07:02:57;13.32;;;8.50;;
34200;SDS011;20469;55.638;37.670;2023-02-08T07:05:26;15.02;;;8.90;;
34200;SDS011;20469;55.638;37.670;2023-02-08T07:07:53;12.77;;;7.95;;
34200;SDS011;20469;55.638;37.670;2023-02-08T07:10:20;14.57;;;8.45;;
34200;SDS011;20469;55.638;37.670;2023-02-08T07:12:47;15.07;;;8.75;;
34200;SDS011;20469;55.638;37.670;2023-02-08T07:15:14;14.38;;;8.80;;
34200;SDS011;20469;55.638;37.670;2023-02-08T07:17:41;15.43;;;8.30;;
34200;SDS011;20469;55.638;37.670;2023-02-08T07:20:09;12.65;;;7.97;;
34200;SDS011;20469;55.638;37.670;2023-02-08T07:22:37;15.88;;;8.18;;
34200;SDS011;20469;55.638;37.670;2023-02-08T07:25:05;14.07;;;8.73;;
34200;SDS011;20469;55.638;37.670;2023-02-08T07:27:33;16.42;;;9.45;;
34200;SDS011;20469;55.638;37.670;2023-02-08T07:30:00;15.07;;;8.95;;
34200;SDS011;20469;55.638;37.670;2023-02-08T07:32:29;15.38;;;8.68;;
34200;SDS011;20469;55.638;37.670;2023-02-08T07:34:59;12.45;;;7.32;;
34200;SDS011;20469;55.638;37.670;2023-02-08T07:37:28;15.40;;;8.15;;
34200;SDS011;20469;55.638;37.670;2023-02-08T07:39:57;13.10;;;8.35;;
34200;SDS011;20469;55.638;37.670;2023-02-08T07:42:26;12.98;;;8.23;;
34200;SDS011;20469;55.638;37.670;2023-02-08T07:44:53;16.05;;;8.68;;
34200;SDS011;20469;55.638;37.670;2023-02-08T07:47:20;14.88;;;8.38;;
34200;SDS011;20469;55.638;37.670;2023-02-08T07:49:47;12.18;;;7.63;;
34200;SDS011;20469;55.638;37.670;2023-02-08T07:52:15;14.05;;;7.97;;
34200;SDS011;20469;55.638;37.670;2023-02-08T07:54:42;12.70;;;7.97;;
34200;SDS011;20469;55.638;37.670;2023-02-08T07:57:09;13.68;;;8.38;;
34200;SDS011;20469;55.638;37.670;2023-02-08T07:59:36;15.80;;;7.93;;
34200;SDS011;20469;55.638;37.670;2023-02-08T08:02:03;14.18;;;8.15;;
34200;SDS011;20469;55.638;37.670;2023-02-08T08:04:30;12.23;;;7.57;;
34200;SDS011;20469;55.638;37.670;2023-02-08T08:06:57;10.63;;;6.65;;
34200;SDS011;20469;55.638;37.670;2023-02-08T08:09:25;11.93;;;7.38;;
34200;SDS011;20469;55.638;37.670;2023-02-08T08:11:52;12.80;;;7.07;;
34200;SDS011;20469;55.638;37.670;2023-02-08T08:14:19;11.25;;;7.05;;
34200;SDS011;20469;55.638;37.670;2023-02-08T08:16:46;13.35;;;7.78;;
34200;SDS011;20469;55.638;37.670;2023-02-08T08:19:13;13.68;;;7.97;;
34200;SDS011;20469;55.638;37.670;2023-02-08T08:21:40;13.90;;;7.68;;
34200;SDS011;20469;55.638;37.670;2023-02-08T08:24:08;15.77;;;7.65;;
34200;SDS011;20469;55.638;37.670;2023-02-08T08:26:35;10.98;;;7.15;;
34200;SDS011;20469;55.638;37.670;2023-02-08T08:29:02;12.68;;;7.90;;
34200;SDS011;20469;55.638;37.670;2023-02-08T08:31:29;14.02;;;7.38;;
34200;SDS011;20469;55.638;37.670;2023-02-08T08:33:56;12.02;;;7.32;;
34200;SDS011;20469;55.638;37.670;2023-02-08T08:36:23;12.52;;;7.25;;
34200;SDS011;20469;55.638;37.670;2023-02-08T08:38:50;11.52;;;7.30;;
34200;SDS011;20469;55.638;37.670;2023-02-08T08:41:18;12.20;;;7.22;;
34200;SDS011;20469;55.638;37.670;2023-02-08T08:43:47;14.15;;;7.82;;
34200;SDS011;20469;55.638;37.670;2023-02-08T08:46:15;11.90;;;7.20;;
34200;SDS011;20469;55.638;37.670;2023-02-08T08:48:43;17.25;;;8.35;;
34200;SDS011;20469;55.638;37.670;2023-02-08T08:51:11;11.98;;;7.13;;
34200;SDS011;20469;55.638;37.670;2023-02-08T08:53:39;12.30;;;7.05;;
34200;SDS011;20469;55.638;37.670;2023-02-08T08:56:06;14.48;;;8.07;;
34200;SDS011;20469;55.638;37.670;2023-02-08T08:58:34;13.18;;;7.28;;
34200;SDS011;20469;55.638;37.670;2023-02-08T09:01:01;13.73;;;7.97;;
34200;SDS011;20469;55.638;37.670;2023-02-08T09:03:28;15.05;;;8.38;;
34200;SDS011;20469;55.638;37.670;2023-02-08T09:05:56;13.20;;;7.43;;
34200;SDS011;20469;55.638;37.670;2023-02-08T09:08:23;17.75;;;8.55;;
34200;SDS011;20469;55.638;37.670;2023-02-08T09:10:50;10.90;;;6.70;;
34200;SDS011;20469;55.638;37.670;2023-02-08T09:13:17;11.40;;;7.20;;
34200;SDS011;20469;55.638;37.670;2023-02-08T09:15:45;12.57;;;7.65;;
34200;SDS011;20469;55.638;37.670;2023-02-08T09:18:14;10.52;;;7.22;;
34200;SDS011;20469;55.638;37.670;2023-02-08T09:20:41;12.07;;;7.57;;
34200;SDS011;20469;55.638;37.670;2023-02-08T09:23:09;12.10;;;7.35;;
34200;SDS011;20469;55.638;37.670;2023-02-08T09:25:36;12.52;;;8.20;;
34200;SDS011;20469;55.638;37.670;2023-02-08T09:28:04;12.50;;;7.55;;
34200;SDS011;20469;55.638;37.670;2023-02-08T09:30:31;12.52;;;7.28;;
34200;SDS011;20469;55.638;37.670;2023-02-08T09:32:58;13.00;;;7.97;;
34200;SDS011;20469;55.638;37.670;2023-02-08T09:35:26;12.73;;;7.20;;
34200;SDS011;20469;55.638;37.670;2023-02-08T09:37:53;13.50;;;7.60;;
34200;SDS011;20469;55.638;37.670;2023-02-08T09:40:24;11.10;;;6.55;;
34200;SDS011;20469;55.638;37.670;2023-02-08T09:43:40;13.32;;;6.95;;
34200;SDS011;20469;55.638;37.670;2023-02-08T09:46:02;16.27;;;7.82;;
34200;SDS011;20469;55.638;37.670;2023-02-08T09:48:34;20.10;;;8.63;;
34200;SDS011;20469;55.638;37.670;2023-02-08T09:53:38;11.32;;;7.55;;
34200;SDS011;20469;55.638;37.670;2023-02-08T09:56:10;10.82;;;7.15;;
34200;SDS011;20469;55.638;37.670;2023-02-08T09:58:44;11.95;;;7.18;;
34200;SDS011;20469;55.638;37.670;2023-02-08T10:01:20;11.63;;;6.93;;
34200;SDS011;20469;55.638;37.670;2023-02-08T10:03:59;20.65;;;7.82;;
34200;SDS011;20469;55.638;37.670;2023-02-08T10:06:33;12.48;;;7.22;;
34200;SDS011;20469;55.638;37.670;2023-02-08T10:09:02;12.80;;;7.32;;
34200;SDS011;20469;55.638;37.670;2023-02-08T10:11:49;11.25;;;7.32;;
34200;SDS011;20469;55.638;37.670;2023-02-08T10:14:49;14.18;;;7.78;;
34200;SDS011;20469;55.638;37.670;2023-02-08T10:17:42;11.82;;;7.88;;
34200;SDS011;20469;55.638;37.670;2023-02-08T10:20:45;11.75;;;7.68;;
34200;SDS011;20469;55.638;37.670;2023-02-08T10:26:13;14.82;;;8.27;;
34200;SDS011;20469;55.638;37.670;2023-02-08T10:28:53;12.05;;;8.05;;
34200;SDS011;20469;55.638;37.670;2023-02-08T10:37:14;13.23;;;7.80;;
34200;SDS011;20469;55.638;37.670;2023-02-08T10:39:46;13.38;;;7.82;;
34200;SDS011;20469;55.638;37.670;2023-02-08T10:42:19;12.15;;;7.55;;
34200;SDS011;20469;55.638;37.670;2023-02-08T10:45:24;11.20;;;7.35;;
34200;SDS011;20469;55.638;37.670;2023-02-08T10:47:51;8.55;;;6.40;;
34200;SDS011;20469;55.638;37.670;2023-02-08T10:50:27;10.63;;;7.15;;
34200;SDS011;20469;55.638;37.670;2023-02-08T10:52:57;11.90;;;7.15;;
34200;SDS011;20469;55.638;37.670;2023-02-08T10:55:25;10.23;;;6.53;;
34200;SDS011;20469;55.638;37.670;2023-02-08T10:57:54;11.40;;;8.05;;
34200;SDS011;20469;55.638;37.670;2023-02-08T11:00:26;7.78;;;6.43;;
34200;SDS011;20469;55.638;37.670;2023-02-08T11:03:07;7.80;;;6.32;;
34200;SDS011;20469;55.638;37.670;2023-02-08T11:06:01;8.75;;;6.75;;
34200;SDS011;20469;55.638;37.670;2023-02-08T11:08:28;9.10;;;7.30;;
34200;SDS011;20469;55.638;37.670;2023-02-08T11:10:56;12.05;;;6.68;;
34200;SDS011;20469;55.638;37.670;2023-02-08T11:13:34;9.57;;;6.97;;
34200;SDS011;20469;55.638;37.670;2023-02-08T11:16:04;9.35;;;7.22;;
34200;SDS011;20469;55.638;37.670;2023-02-08T11:18:33;8.52;;;6.63;;
34200;SDS011;20469;55.638;37.670;2023-02-08T11:21:22;12.25;;;7.28;;
34200;SDS011;20469;55.638;37.670;2023-02-08T11:24:21;12.15;;;7.72;;
34200;SDS011;20469;55.638;37.670;2023-02-08T11:26:55;12.70;;;7.72;;
34200;SDS011;20469;55.638;37.670;2023-02-08T11:29:23;12.90;;;7.82;;
34200;SDS011;20469;55.638;37.670;2023-02-08T11:37:03;12.93;;;6.90;;
34200;SDS011;20469;55.638;37.670;2023-02-08T11:42:30;11.52;;;6.50;;
34200;SDS011;20469;55.638;37.670;2023-02-08T11:45:02;9.73;;;6.70;;
34200;SDS011;20469;55.638;37.670;2023-02-08T11:47:34;11.32;;;7.30;;
34200;SDS011;20469;55.638;37.670;2023-02-08T11:50:05;13.32;;;7.40;;
34200;SDS011;20469;55.638;37.670;2023-02-08T11:52:37;12.40;;;7.53;;
34200;SDS011;20469;55.638;37.670;2023-02-08T11:58:02;10.45;;;7.38;;
34200;SDS011;20469;55.638;37.670;2023-02-08T12:01:16;11.27;;;7.38;;
34200;SDS011;20469;55.638;37.670;2023-02-08T12:03:56;10.75;;;7.00;;
34200;SDS011;20469;55.638;37.670;2023-02-08T12:09:48;12.25;;;7.07;;
34200;SDS011;20469;55.638;37.670;2023-02-08T12:24:01;13.10;;;7.47;;
34200;SDS011;20469;55.638;37.670;2023-02-08T12:53:30;9.82;;;6.72;;
34200;SDS011;20469;55.638;37.670;2023-02-08T12:56:07;12.90;;;6.53;;
34200;SDS011;20469;55.638;37.670;2023-02-08T12:58:50;14.38;;;7.10;;
34200;SDS011;20469;55.638;37.670;2023-02-08T13:01:45;11.77;;;7.15;;
34200;SDS011;20469;55.638;37.670;2023-02-08T13:04:19;12.70;;;7.43;;
34200;SDS011;20469;55.638;37.670;2023-02-08T13:06:56;14.60;;;7.47;;
34200;SDS011;20469;55.638;37.670;2023-02-08T13:12:05;11.93;;;7.40;;
34200;SDS011;20469;55.638;37.670;2023-02-08T13:17:57;10.55;;;6.72;;
34200;SDS011;20469;55.638;37.670;2023-02-08T13:23:28;10.10;;;6.68;;
34200;SDS011;20469;55.638;37.670;2023-02-08T13:26:13;9.38;;;7.13;;
34200;SDS011;20469;55.638;37.670;2023-02-08T13:28:47;10.07;;;6.70;;
34200;SDS011;20469;55.638;37.670;2023-02-08T13:31:27;10.73;;;6.72;;
34200;SDS011;20469;55.638;37.670;2023-02-08T13:34:05;12.02;;;7.53;;
34200;SDS011;20469;55.638;37.670;2023-02-08T13:36:40;9.73;;;6.32;;
34200;SDS011;20469;55.638;37.670;2023-02-08T13:39:36;9.02;;;6.32;;
34200;SDS011;20469;55.638;37.670;2023-02-08T13:42:17;10.07;;;6.55;;
34200;SDS011;20469;55.638;37.670;2023-02-08T13:45:06;11.63;;;6.97;;
34200;SDS011;20469;55.638;37.670;2023-02-08T13:47:40;11.57;;;7.35;;
34200;SDS011;20469;55.638;37.670;2023-02-08T13:50:55;17.65;;;8.02;;
34200;SDS011;20469;55.638;37.670;2023-02-08T13:53:00;11.98;;;7.50;;
34200;SDS011;20469;55.638;37.670;2023-02-08T14:08:30;9.88;;;6.85;;
34200;SDS011;20469;55.638;37.670;2023-02-08T14:13:43;11.18;;;7.28;;
34200;SDS011;20469;55.638;37.670;2023-02-08T14:16:31;10.65;;;6.60;;
34200;SDS011;20469;55.638;37.670;2023-02-08T14:21:46;10.82;;;6.90;;
34200;SDS011;20469;55.638;37.670;2023-02-08T14:24:36;9.85;;;6.47;;
34200;SDS011;20469;55.638;37.670;2023-02-08T14:27:23;9.55;;;6.57;;
34200;SDS011;20469;55.638;37.670;2023-02-08T14:30:04;11.05;;;7.00;;
34200;SDS011;20469;55.638;37.670;2023-02-08T14:32:39;9.75;;;7.00;;
34200;SDS011;20469;55.638;37.670;2023-02-08T14:35:16;11.02;;;7.05;;
34200;SDS011;20469;55.638;37.670;2023-02-08T14:37:50;13.27;;;7.82;;
34200;SDS011;20469;55.638;37.670;2023-02-08T14:40:46;12.48;;;7.15;;
34200;SDS011;20469;55.638;37.670;2023-02-08T14:45:46;13.25;;;8.70;;
34200;SDS011;20469;55.638;37.670;2023-02-08T14:48:27;12.60;;;7.55;;
34200;SDS011;20469;55.638;37.670;2023-02-08T14:53:47;13.13;;;8.07;;
34200;SDS011;20469;55.638;37.670;2023-02-08T14:56:25;12.43;;;7.55;;
34200;SDS011;20469;55.638;37.670;2023-02-08T14:59:02;14.57;;;7.80;;
34200;SDS011;20469;55.638;37.670;2023-02-08T15:04:19;12.15;;;7.63;;
34200;SDS011;20469;55.638;37.670;2023-02-08T15:09:30;13.40;;;8.27;;
34200;SDS011;20469;55.638;37.670;2023-02-08T15:14:35;12.20;;;7.10;;
34200;SDS011;20469;55.638;37.670;2023-02-08T15:17:05;13.93;;;8.05;;
34200;SDS011;20469;55.638;37.670;2023-02-08T15:19:44;13.55;;;7.68;;
34200;SDS011;20469;55.638;37.670;2023-02-08T15:27:28;12.15;;;7.00;;
34200;SDS011;20469;55.638;37.670;2023-02-08T15:29:59;12.25;;;7.53;;
34200;SDS011;20469;55.638;37.670;2023-02-08T15:32:29;13.27;;;7.78;;
34200;SDS011;20469;55.638;37.670;2023-02-08T15:34:58;12.93;;;8.15;;
34200;SDS011;20469;55.638;37.670;2023-02-08T15:37:31;11.45;;;7.43;;
34200;SDS011;20469;55.638;37.670;2023-02-08T15:40:00;10.25;;;7.07;;
34200;SDS011;20469;55.638;37.670;2023-02-08T15:42:31;12.57;;;7.65;;
34200;SDS011;20469;55.638;37.670;2023-02-08T15:44:59;12.73;;;7.88;;
34200;SDS011;20469;55.638;37.670;2023-02-08T15:49:58;11.68;;;7.28;;
34200;SDS011;20469;55.638;37.670;2023-02-08T15:52:27;15.18;;;7.97;;
34200;SDS011;20469;55.638;37.670;2023-02-08T15:54:58;12.68;;;7.80;;
34200;SDS011;20469;55.638;37.670;2023-02-08T15:57:38;11.77;;;7.65;;
34200;SDS011;20469;55.638;37.670;2023-02-08T16:00:21;13.25;;;7.82;;
34200;SDS011;20469;55.638;37.670;2023-02-08T16:02:57;12.20;;;7.93;;
34200;SDS011;20469;55.638;37.670;2023-02-08T16:05:34;10.25;;;6.95;;
34200;SDS011;20469;55.638;37.670;2023-02-08T16:08:02;11.77;;;7.57;;
34200;SDS011;20469;55.638;37.670;2023-02-08T16:10:31;13.63;;;7.75;;
34200;SDS011;20469;55.638;37.670;2023-02-08T16:13:21;14.02;;;8.88;;
34200;SDS011;20469;55.638;37.670;2023-02-08T16:15:54;12.38;;;7.78;;
34200;SDS011;20469;55.638;37.670;2023-02-08T16:18:41;11.45;;;6.90;;
34200;SDS011;20469;55.638;37.670;2023-02-08T16:21:26;11.10;;;7.35;;
34200;SDS011;20469;55.638;37.670;2023-02-08T16:29:18;11.43;;;6.95;;
34200;SDS011;20469;55.638;37.670;2023-02-08T16:34:38;13.07;;;8.20;;
34200;SDS011;20469;55.638;37.670;2023-02-08T16:37:15;12.98;;;8.15;;
34200;SDS011;20469;55.638;37.670;2023-02-08T16:39:56;12.02;;;7.70;;
34200;SDS011;20469;55.638;37.670;2023-02-08T16:42:32;11.07;;;7.07;;
34200;SDS011;20469;55.638;37.670;2023-02-08T16:45:10;10.88;;;6.90;;
34200;SDS011;20469;55.638;37.670;2023-02-08T16:47:52;11.20;;;7.07;;
34200;SDS011;20469;55.638;37.670;2023-02-08T16:50:24;12.02;;;7.25;;
34200;SDS011;20469;55.638;37.670;2023-02-08T16:52:54;10.55;;;7.00;;
34200;SDS011;20469;55.638;37.670;2023-02-08T16:55:26;10.70;;;7.00;;
34200;SDS011;20469;55.638;37.670;2023-02-08T16:57:58;10.77;;;6.75;;
34200;SDS011;20469;55.638;37.670;2023-02-08T17:00:27;10.10;;;6.60;;
34200;SDS011;20469;55.638;37.670;2023-02-08T17:02:56;11.85;;;7.07;;
34200;SDS011;20469;55.638;37.670;2023-02-08T17:05:27;10.10;;;6.78;;
34200;SDS011;20469;55.638;37.670;2023-02-08T17:10:28;11.45;;;6.47;;
34200;SDS011;20469;55.638;37.670;2023-02-08T17:12:58;9.38;;;6.45;;
34200;SDS011;20469;55.638;37.670;2023-02-08T17:15:45;10.27;;;6.80;;
34200;SDS011;20469;55.638;37.670;2023-02-08T17:18:14;10.80;;;7.00;;
34200;SDS011;20469;55.638;37.670;2023-02-08T17:20:41;9.00;;;6.30;;
34200;SDS011;20469;55.638;37.670;2023-02-08T17:23:09;10.77;;;6.43;;
34200;SDS011;20469;55.638;37.670;2023-02-08T17:25:37;10.27;;;6.57;;
34200;SDS011;20469;55.638;37.670;2023-02-08T17:28:06;10.30;;;6.68;;
34200;SDS011;20469;55.638;37.670;2023-02-08T17:30:37;10.80;;;6.13;;
34200;SDS011;20469;55.638;37.670;2023-02-08T17:33:07;11.32;;;6.90;;
34200;SDS011;20469;55.638;37.670;2023-02-08T17:35:44;13.20;;;6.93;;
34200;SDS011;20469;55.638;37.670;2023-02-08T17:38:13;9.35;;;5.82;;